sensor_id;sensor_type;location;lat;lon;timestamp;pressure;altitude;pressure_sealevel;temperature;humidity
69842;BME280;57138;51.326;-0.068;2023-04-19T00:02:19;100723.09;;;7.80;85.51
69842;BME280;57138;51.326;-0.068;2023-04-19T00:04:44;100730.94;;;7.81;85.61
69842;BME280;57138;51.326;-0.068;2023-04-19T00:07:11;100726.22;;;7.75;85.55
69842;BME280;57138;51.326;-0.068;2023-04-19T00:09:37;100729.88;;;7.74;85.62
69842;BME280;57138;51.326;-0.068;2023-04-19T00:12:03;100722.59;;;7.76;85.91
69842;BME280;57138;51.326;-0.068;2023-04-19T00:14:28;100725.91;;;7.78;86.00
69842;BME280;57138;51.326;-0.068;2023-04-19T00:16:54;100729.25;;;7.80;85.98
69842;BME280;57138;51.326;-0.068;2023-04-19T00:19:19;100731.75;;;7.82;86.04
69842;BME280;57138;51.326;-0.068;2023-04-19T00:21:46;100720.59;;;7.78;86.16
69842;BME280;57138;51.326;-0.068;2023-04-19T00:24:12;100722.59;;;7.76;86.25
69842;BME280;57138;51.326;-0.068;2023-04-19T00:26:37;100720.91;;;7.75;86.54
69842;BME280;57138;51.326;-0.068;2023-04-19T00:29:02;100709.44;;;7.74;86.23
69842;BME280;57138;51.326;-0.068;2023-04-19T00:31:28;100708.59;;;7.74;86.39
69842;BME280;57138;51.326;-0.068;2023-04-19T00:33:53;100710.41;;;7.73;86.62
69842;BME280;57138;51.326;-0.068;2023-04-19T00:36:18;100704.59;;;7.70;86.83
69842;BME280;57138;51.326;-0.068;2023-04-19T00:38:44;100712.25;;;7.73;86.81
69842;BME280;57138;51.326;-0.068;2023-04-19T00:41:10;100705.56;;;7.69;86.55
69842;BME280;57138;51.326;-0.068;2023-04-19T00:43:35;100696.91;;;7.67;86.83
69842;BME280;57138;51.326;-0.068;2023-04-19T00:46:01;100702.75;;;7.70;87.16
69842;BME280;57138;51.326;-0.068;2023-04-19T00:48:26;100703.88;;;7.68;87.24
69842;BME280;57138;51.326;-0.068;2023-04-19T00:50:52;100699.59;;;7.67;87.12
69842;BME280;57138;51.326;-0.068;2023-04-19T00:53:18;100687.72;;;7.61;86.97
69842;BME280;57138;51.326;-0.068;2023-04-19T00:55:43;100705.53;;;7.61;87.58
69842;BME280;57138;51.326;-0.068;2023-04-19T00:58:09;100694.16;;;7.50;87.60
69842;BME280;57138;51.326;-0.068;2023-04-19T01:00:35;100693.47;;;7.48;88.03
69842;BME280;57138;51.326;-0.068;2023-04-19T01:03:01;100691.47;;;7.50;87.44
69842;BME280;57138;51.326;-0.068;2023-04-19T01:05:26;100691.94;;;7.46;87.81
69842;BME280;57138;51.326;-0.068;2023-04-19T01:07:52;100680.44;;;7.37;88.05
69842;BME280;57138;51.326;-0.068;2023-04-19T01:10:17;100690.22;;;7.36;88.08
69842;BME280;57138;51.326;-0.068;2023-04-19T01:12:43;100680.38;;;7.29;87.59
69842;BME280;57138;51.326;-0.068;2023-04-19T01:15:08;100686.00;;;7.26;87.92
69842;BME280;57138;51.326;-0.068;2023-04-19T01:17:34;100688.13;;;7.22;87.77
69842;BME280;57138;51.326;-0.068;2023-04-19T01:20:01;100682.63;;;7.15;87.65
69842;BME280;57138;51.326;-0.068;2023-04-19T01:22:28;100689.59;;;7.16;88.64
69842;BME280;57138;51.326;-0.068;2023-04-19T01:24:55;100686.56;;;7.11;88.51
69842;BME280;57138;51.326;-0.068;2023-04-19T01:27:20;100681.56;;;7.08;88.70
69842;BME280;57138;51.326;-0.068;2023-04-19T01:29:45;100680.19;;;7.04;88.82
69842;BME280;57138;51.326;-0.068;2023-04-19T01:32:11;100675.72;;;7.05;88.11
69842;BME280;57138;51.326;-0.068;2023-04-19T01:34:39;100670.47;;;6.95;88.90
69842;BME280;57138;51.326;-0.068;2023-04-19T01:37:06;100669.63;;;6.94;88.49
69842;BME280;57138;51.326;-0.068;2023-04-19T01:39:31;100676.78;;;6.94;88.72
69842;BME280;57138;51.326;-0.068;2023-04-19T01:41:57;100664.78;;;6.90;89.31
69842;BME280;57138;51.326;-0.068;2023-04-19T01:44:22;100675.25;;;6.91;88.59
69842;BME280;57138;51.326;-0.068;2023-04-19T01:46:47;100663.25;;;6.87;89.09
69842;BME280;57138;51.326;-0.068;2023-04-19T01:49:13;100665.25;;;6.85;88.82
69842;BME280;57138;51.326;-0.068;2023-04-19T01:51:38;100661.75;;;6.84;89.66
69842;BME280;57138;51.326;-0.068;2023-04-19T01:54:04;100662.75;;;6.83;88.92
69842;BME280;57138;51.326;-0.068;2023-04-19T01:56:29;100655.06;;;6.80;89.31
69842;BME280;57138;51.326;-0.068;2023-04-19T01:58:55;100662.38;;;6.78;89.85
69842;BME280;57138;51.326;-0.068;2023-04-19T02:01:21;100649.38;;;6.75;89.99
69842;BME280;57138;51.326;-0.068;2023-04-19T02:03:46;100657.72;;;6.80;89.88
69842;BME280;57138;51.326;-0.068;2023-04-19T02:06:12;100638.75;;;6.75;90.08
69842;BME280;57138;51.326;-0.068;2023-04-19T02:08:41;100648.56;;;6.75;89.56
69842;BME280;57138;51.326;-0.068;2023-04-19T02:11:11;100642.09;;;6.77;90.02
69842;BME280;57138;51.326;-0.068;2023-04-19T02:13:40;100650.38;;;6.74;90.18
69842;BME280;57138;51.326;-0.068;2023-04-19T02:16:06;100646.22;;;6.72;89.76
69842;BME280;57138;51.326;-0.068;2023-04-19T02:18:32;100653.03;;;6.74;90.62
69842;BME280;57138;51.326;-0.068;2023-04-19T02:20:58;100646.50;;;6.69;90.24
69842;BME280;57138;51.326;-0.068;2023-04-19T02:23:23;100655.00;;;6.72;90.43
69842;BME280;57138;51.326;-0.068;2023-04-19T02:25:50;100657.50;;;6.74;90.67
69842;BME280;57138;51.326;-0.068;2023-04-19T02:28:15;100648.88;;;6.72;90.76
69842;BME280;57138;51.326;-0.068;2023-04-19T02:30:40;100649.53;;;6.74;90.50
69842;BME280;57138;51.326;-0.068;2023-04-19T02:33:06;100654.41;;;6.78;90.89
69842;BME280;57138;51.326;-0.068;2023-04-19T02:35:32;100638.75;;;6.75;90.65
69842;BME280;57138;51.326;-0.068;2023-04-19T02:37:59;100644.59;;;6.79;90.53
69842;BME280;57138;51.326;-0.068;2023-04-19T02:40:24;100640.44;;;6.76;90.65
69842;BME280;57138;51.326;-0.068;2023-04-19T02:42:51;100640.75;;;6.73;90.74
69842;BME280;57138;51.326;-0.068;2023-04-19T02:45:16;100644.38;;;6.72;90.88
69842;BME280;57138;51.326;-0.068;2023-04-19T02:47:41;100648.72;;;6.73;91.13
69842;BME280;57138;51.326;-0.068;2023-04-19T02:50:07;100638.91;;;6.74;91.27
69842;BME280;57138;51.326;-0.068;2023-04-19T02:52:33;100638.38;;;6.70;91.75
69842;BME280;57138;51.326;-0.068;2023-04-19T02:54:58;100635.72;;;6.70;91.72
69842;BME280;57138;51.326;-0.068;2023-04-19T02:57:23;100636.72;;;6.69;91.29
69842;BME280;57138;51.326;-0.068;2023-04-19T02:59:49;100630.72;;;6.67;91.39
69842;BME280;57138;51.326;-0.068;2023-04-19T03:02:14;100632.38;;;6.68;91.74
69842;BME280;57138;51.326;-0.068;2023-04-19T03:04:40;100622.06;;;6.65;92.09
69842;BME280;57138;51.326;-0.068;2023-04-19T03:07:05;100618.72;;;6.63;91.87
69842;BME280;57138;51.326;-0.068;2023-04-19T03:09:31;100619.69;;;6.62;92.03
69842;BME280;57138;51.326;-0.068;2023-04-19T03:11:56;100624.84;;;6.63;92.43
69842;BME280;57138;51.326;-0.068;2023-04-19T03:14:21;100613.72;;;6.60;92.35
69842;BME280;57138;51.326;-0.068;2023-04-19T03:16:47;100621.22;;;6.64;92.70
69842;BME280;57138;51.326;-0.068;2023-04-19T03:19:12;100621.06;;;6.66;92.97
69842;BME280;57138;51.326;-0.068;2023-04-19T03:21:38;100628.44;;;6.72;92.71
69842;BME280;57138;51.326;-0.068;2023-04-19T03:24:03;100615.97;;;6.73;92.95
69842;BME280;57138;51.326;-0.068;2023-04-19T03:26:29;100625.31;;;6.77;92.82
69842;BME280;57138;51.326;-0.068;2023-04-19T03:28:54;100616.81;;;6.73;92.99
69842;BME280;57138;51.326;-0.068;2023-04-19T03:31:20;100613.16;;;6.74;92.74
69842;BME280;57138;51.326;-0.068;2023-04-19T03:33:45;100621.84;;;6.76;92.98
69842;BME280;57138;51.326;-0.068;2023-04-19T03:36:11;100620.97;;;6.76;92.58
69842;BME280;57138;51.326;-0.068;2023-04-19T03:38:36;100612.63;;;6.71;93.20
69842;BME280;57138;51.326;-0.068;2023-04-19T03:41:02;100619.69;;;6.80;92.95
69842;BME280;57138;51.326;-0.068;2023-04-19T03:43:27;100612.53;;;6.80;92.90
69842;BME280;57138;51.326;-0.068;2023-04-19T03:45:52;100615.19;;;6.80;92.99
69842;BME280;57138;51.326;-0.068;2023-04-19T03:48:18;100613.25;;;6.82;93.41
69842;BME280;57138;51.326;-0.068;2023-04-19T03:50:43;100615.19;;;6.80;92.88
69842;BME280;57138;51.326;-0.068;2023-04-19T03:53:08;100620.53;;;6.80;93.30
69842;BME280;57138;51.326;-0.068;2023-04-19T03:55:34;100620.53;;;6.80;93.53
69842;BME280;57138;51.326;-0.068;2023-04-19T03:57:59;100612.69;;;6.79;93.00
69842;BME280;57138;51.326;-0.068;2023-04-19T04:00:25;100600.56;;;6.76;93.46
69842;BME280;57138;51.326;-0.068;2023-04-19T04:02:50;100608.25;;;6.79;93.15
69842;BME280;57138;51.326;-0.068;2023-04-19T04:05:15;100609.56;;;6.83;93.45
69842;BME280;57138;51.326;-0.068;2023-04-19T04:07:41;100609.88;;;6.80;93.13
69842;BME280;57138;51.326;-0.068;2023-04-19T04:10:07;100620.22;;;6.83;94.01
69842;BME280;57138;51.326;-0.068;2023-04-19T04:12:33;100620.22;;;6.83;93.26
69842;BME280;57138;51.326;-0.068;2023-04-19T04:14:58;100613.25;;;6.82;93.41
69842;BME280;57138;51.326;-0.068;2023-04-19T04:17:23;100623.53;;;6.86;93.64
69842;BME280;57138;51.326;-0.068;2023-04-19T04:19:49;100613.91;;;6.84;93.34
69842;BME280;57138;51.326;-0.068;2023-04-19T04:22:15;100608.59;;;6.84;93.67
69842;BME280;57138;51.326;-0.068;2023-04-19T04:24:41;100608.44;;;6.86;93.13
69842;BME280;57138;51.326;-0.068;2023-04-19T04:27:08;100606.25;;;6.81;93.41
69842;BME280;57138;51.326;-0.068;2023-04-19T04:29:36;100602.63;;;6.82;93.44
69842;BME280;57138;51.326;-0.068;2023-04-19T04:32:04;100611.25;;;6.84;93.88
69842;BME280;57138;51.326;-0.068;2023-04-19T04:34:30;100614.91;;;6.83;94.10
69842;BME280;57138;51.326;-0.068;2023-04-19T04:36:59;100600.94;;;6.81;93.92
69842;BME280;57138;51.326;-0.068;2023-04-19T04:39:27;100614.91;;;6.83;93.46
69842;BME280;57138;51.326;-0.068;2023-04-19T04:41:53;100607.38;;;6.79;93.61
69842;BME280;57138;51.326;-0.068;2023-04-19T04:44:18;100607.94;;;6.82;94.00
69842;BME280;57138;51.326;-0.068;2023-04-19T04:46:45;100612.25;;;6.83;94.07
69842;BME280;57138;51.326;-0.068;2023-04-19T04:49:11;100607.78;;;6.84;94.83
69842;BME280;57138;51.326;-0.068;2023-04-19T04:51:36;100607.94;;;6.82;94.41
69842;BME280;57138;51.326;-0.068;2023-04-19T04:54:01;100605.44;;;6.81;94.12
69842;BME280;57138;51.326;-0.068;2023-04-19T04:56:27;100610.91;;;6.79;94.41
69842;BME280;57138;51.326;-0.068;2023-04-19T04:58:53;100608.25;;;6.79;94.36
69842;BME280;57138;51.326;-0.068;2023-04-19T05:01:18;100609.88;;;6.80;94.39
69842;BME280;57138;51.326;-0.068;2023-04-19T05:03:44;100618.22;;;6.86;94.36
69842;BME280;57138;51.326;-0.068;2023-04-19T05:06:10;100621.88;;;6.84;94.21
69842;BME280;57138;51.326;-0.068;2023-04-19T05:08:35;100624.69;;;6.83;93.95
69842;BME280;57138;51.326;-0.068;2023-04-19T05:11:01;100615.19;;;6.80;94.45
69842;BME280;57138;51.326;-0.068;2023-04-19T05:13:26;100620.53;;;6.80;93.99
69842;BME280;57138;51.326;-0.068;2023-04-19T05:15:52;100620.38;;;6.82;94.34
69842;BME280;57138;51.326;-0.068;2023-04-19T05:18:17;100621.06;;;6.84;94.01
69842;BME280;57138;51.326;-0.068;2023-04-19T05:20:42;100623.88;;;6.82;94.39
69842;BME280;57138;51.326;-0.068;2023-04-19T05:23:08;100629.03;;;6.84;94.72
69842;BME280;57138;51.326;-0.068;2023-04-19T05:25:35;100619.38;;;6.83;94.25
69842;BME280;57138;51.326;-0.068;2023-04-19T05:28:01;100629.72;;;6.86;94.49
69842;BME280;57138;51.326;-0.068;2023-04-19T05:30:27;100628.84;;;6.86;94.83
69842;BME280;57138;51.326;-0.068;2023-04-19T05:32:53;100630.22;;;6.90;95.44
69842;BME280;57138;51.326;-0.068;2023-04-19T05:35:19;100627.56;;;6.90;95.05
69842;BME280;57138;51.326;-0.068;2023-04-19T05:37:44;100617.91;;;6.89;95.32
69842;BME280;57138;51.326;-0.068;2023-04-19T05:40:10;100632.41;;;6.94;95.38
69842;BME280;57138;51.326;-0.068;2023-04-19T05:42:36;100634.94;;;6.96;95.17
69842;BME280;57138;51.326;-0.068;2023-04-19T05:45:01;100640.59;;;7.01;95.55
69842;BME280;57138;51.326;-0.068;2023-04-19T05:47:26;100635.28;;;7.01;95.24
69842;BME280;57138;51.326;-0.068;2023-04-19T05:49:52;100648.97;;;7.06;95.12
69842;BME280;57138;51.326;-0.068;2023-04-19T05:52:17;100643.66;;;7.06;95.02
69842;BME280;57138;51.326;-0.068;2023-04-19T05:54:42;100638.09;;;6.99;95.25
69842;BME280;57138;51.326;-0.068;2023-04-19T05:57:09;100637.63;;;7.04;95.52
69842;BME280;57138;51.326;-0.068;2023-04-19T05:59:34;100641.81;;;7.07;95.80
69842;BME280;57138;51.326;-0.068;2023-04-19T06:01:59;100634.50;;;7.09;95.77
69842;BME280;57138;51.326;-0.068;2023-04-19T06:04:26;100648.19;;;7.14;95.52
69842;BME280;57138;51.326;-0.068;2023-04-19T06:06:51;100647.03;;;7.16;95.92
69842;BME280;57138;51.326;-0.068;2023-04-19T06:09:17;100648.72;;;7.17;95.09
69842;BME280;57138;51.326;-0.068;2023-04-19T06:11:43;100654.53;;;7.21;95.75
69842;BME280;57138;51.326;-0.068;2023-04-19T06:14:10;100643.91;;;7.21;95.82
69842;BME280;57138;51.326;-0.068;2023-04-19T06:16:37;100656.22;;;7.22;95.92
69842;BME280;57138;51.326;-0.068;2023-04-19T06:19:03;100649.63;;;7.26;95.37
69842;BME280;57138;51.326;-0.068;2023-04-19T06:21:29;100641.31;;;7.29;95.25
69842;BME280;57138;51.326;-0.068;2023-04-19T06:23:55;100640.47;;;7.29;95.29
69842;BME280;57138;51.326;-0.068;2023-04-19T06:26:21;100646.47;;;7.31;95.56
69842;BME280;57138;51.326;-0.068;2023-04-19T06:28:46;100641.16;;;7.31;95.26
69842;BME280;57138;51.326;-0.068;2023-04-19T06:31:11;100651.19;;;7.37;95.38
69842;BME280;57138;51.326;-0.068;2023-04-19T06:33:37;100642.34;;;7.36;95.44
69842;BME280;57138;51.326;-0.068;2023-04-19T06:36:03;100646.03;;;7.35;94.77
69842;BME280;57138;51.326;-0.068;2023-04-19T06:38:28;100654.88;;;7.44;95.19
69842;BME280;57138;51.326;-0.068;2023-04-19T06:40:54;100662.38;;;7.49;94.97
69842;BME280;57138;51.326;-0.068;2023-04-19T06:43:19;100647.53;;;7.46;94.59
69842;BME280;57138;51.326;-0.068;2023-04-19T06:45:46;100650.06;;;7.48;94.83
69842;BME280;57138;51.326;-0.068;2023-04-19T06:48:11;100650.59;;;7.51;95.31
69842;BME280;57138;51.326;-0.068;2023-04-19T06:50:37;100661.44;;;7.58;94.95
69842;BME280;57138;51.326;-0.068;2023-04-19T06:53:03;100668.44;;;7.59;94.64
69842;BME280;57138;51.326;-0.068;2023-04-19T06:55:29;100655.28;;;7.58;95.22
69842;BME280;57138;51.326;-0.068;2023-04-19T06:57:55;100668.63;;;7.66;94.67
69842;BME280;57138;51.326;-0.068;2023-04-19T07:00:21;100666.31;;;7.71;94.85
69842;BME280;57138;51.326;-0.068;2023-04-19T07:02:48;100671.31;;;7.74;94.17
69842;BME280;57138;51.326;-0.068;2023-04-19T07:05:14;100675.50;;;7.77;94.42
69842;BME280;57138;51.326;-0.068;2023-04-19T07:07:39;100672.69;;;7.78;94.34
69842;BME280;57138;51.326;-0.068;2023-04-19T07:10:07;100675.03;;;7.81;94.26
69842;BME280;57138;51.326;-0.068;2023-04-19T07:12:33;100684.69;;;7.82;94.24
69842;BME280;57138;51.326;-0.068;2023-04-19T07:14:58;100678.72;;;7.88;93.98
69842;BME280;57138;51.326;-0.068;2023-04-19T07:17:23;100682.06;;;7.90;94.23
69842;BME280;57138;51.326;-0.068;2023-04-19T07:19:49;100693.41;;;8.01;94.33
69842;BME280;57138;51.326;-0.068;2023-04-19T07:22:15;100673.78;;;8.02;93.79
69842;BME280;57138;51.326;-0.068;2023-04-19T07:24:40;100669.66;;;8.07;94.06
69842;BME280;57138;51.326;-0.068;2023-04-19T07:27:06;100676.13;;;8.13;93.86
69842;BME280;57138;51.326;-0.068;2023-04-19T07:29:36;100680.00;;;8.19;93.48
69842;BME280;57138;51.326;-0.068;2023-04-19T07:32:01;100690.00;;;8.25;93.05
69842;BME280;57138;51.326;-0.068;2023-04-19T07:34:27;100679.34;;;8.25;92.72
69842;BME280;57138;51.326;-0.068;2023-04-19T07:36:52;100690.72;;;8.35;93.20
69842;BME280;57138;51.326;-0.068;2023-04-19T07:39:18;100679.19;;;8.35;92.67
69842;BME280;57138;51.326;-0.068;2023-04-19T07:41:44;100694.53;;;8.41;92.87
69842;BME280;57138;51.326;-0.068;2023-04-19T07:44:09;100684.75;;;8.41;92.18
69842;BME280;57138;51.326;-0.068;2023-04-19T07:46:36;100695.94;;;8.45;92.47
69842;BME280;57138;51.326;-0.068;2023-04-19T07:49:01;100691.59;;;8.52;92.55
69842;BME280;57138;51.326;-0.068;2023-04-19T07:51:27;100681.94;;;8.59;92.48
69842;BME280;57138;51.326;-0.068;2023-04-19T07:53:53;100691.97;;;8.74;92.03
69842;BME280;57138;51.326;-0.068;2023-04-19T07:56:18;100688.63;;;8.80;91.84
69842;BME280;57138;51.326;-0.068;2023-04-19T07:58:44;100697.50;;;8.89;91.19
69842;BME280;57138;51.326;-0.068;2023-04-19T08:01:10;100697.00;;;9.02;91.02
69842;BME280;57138;51.326;-0.068;2023-04-19T08:03:36;100707.00;;;9.08;90.34
69842;BME280;57138;51.326;-0.068;2023-04-19T08:06:05;100699.31;;;9.13;90.23
69842;BME280;57138;51.326;-0.068;2023-04-19T08:08:34;100700.31;;;9.20;90.31
69842;BME280;57138;51.326;-0.068;2023-04-19T08:11:00;100690.66;;;9.27;89.73
69842;BME280;57138;51.326;-0.068;2023-04-19T08:13:29;100695.97;;;9.35;89.67
69842;BME280;57138;51.326;-0.068;2023-04-19T08:15:55;100692.16;;;9.38;88.63
69842;BME280;57138;51.326;-0.068;2023-04-19T08:18:21;100689.66;;;9.37;88.52
69842;BME280;57138;51.326;-0.068;2023-04-19T08:20:46;100690.63;;;9.44;88.36
69842;BME280;57138;51.326;-0.068;2023-04-19T08:23:13;100688.25;;;9.49;87.82
69842;BME280;57138;51.326;-0.068;2023-04-19T08:25:38;100705.94;;;9.66;87.00
69842;BME280;57138;51.326;-0.068;2023-04-19T08:28:04;100697.72;;;9.76;87.03
69842;BME280;57138;51.326;-0.068;2023-04-19T08:30:31;100703.88;;;9.85;86.74
69842;BME280;57138;51.326;-0.068;2023-04-19T08:32:56;100710.19;;;9.92;86.02
69842;BME280;57138;51.326;-0.068;2023-04-19T08:35:22;100703.69;;;9.95;85.70
69842;BME280;57138;51.326;-0.068;2023-04-19T08:37:47;100704.84;;;10.00;85.90
69842;BME280;57138;51.326;-0.068;2023-04-19T08:40:14;100715.47;;;10.08;85.29
69842;BME280;57138;51.326;-0.068;2023-04-19T08:42:41;100714.28;;;10.11;84.87
69842;BME280;57138;51.326;-0.068;2023-04-19T08:45:07;100709.63;;;10.13;84.63
69842;BME280;57138;51.326;-0.068;2023-04-19T08:47:36;100705.94;;;10.14;84.32
69842;BME280;57138;51.326;-0.068;2023-04-19T08:50:06;100704.22;;;10.21;84.35
69842;BME280;57138;51.326;-0.068;2023-04-19T08:52:34;100710.06;;;10.25;84.29
69842;BME280;57138;51.326;-0.068;2023-04-19T08:55:03;100707.03;;;10.28;84.17
69842;BME280;57138;51.326;-0.068;2023-04-19T08:57:30;100710.72;;;10.35;83.70
69842;BME280;57138;51.326;-0.068;2023-04-19T08:59:57;100705.69;;;10.32;82.76
69842;BME280;57138;51.326;-0.068;2023-04-19T09:02:23;100705.03;;;10.38;83.12
69842;BME280;57138;51.326;-0.068;2023-04-19T09:04:48;100714.66;;;10.48;83.06
69842;BME280;57138;51.326;-0.068;2023-04-19T09:07:26;100710.63;;;10.52;82.28
69842;BME280;57138;51.326;-0.068;2023-04-19T09:10:08;100720.31;;;10.53;81.30
69842;BME280;57138;51.326;-0.068;2023-04-19T09:12:36;100701.59;;;10.53;81.52
69842;BME280;57138;51.326;-0.068;2023-04-19T09:15:04;100720.06;;;10.63;81.74
69842;BME280;57138;51.326;-0.068;2023-04-19T09:17:31;100715.06;;;10.68;80.78
69842;BME280;57138;51.326;-0.068;2023-04-19T09:19:57;100708.50;;;10.70;80.92
69842;BME280;57138;51.326;-0.068;2023-04-19T09:22:23;100709.47;;;10.77;80.60
69842;BME280;57138;51.326;-0.068;2023-04-19T09:24:49;100701.25;;;10.79;80.42
69842;BME280;57138;51.326;-0.068;2023-04-19T09:27:25;100702.56;;;10.83;79.87
69842;BME280;57138;51.326;-0.068;2023-04-19T09:29:52;100696.72;;;10.79;79.67
69842;BME280;57138;51.326;-0.068;2023-04-19T09:32:18;100705.06;;;10.85;79.98
69842;BME280;57138;51.326;-0.068;2023-04-19T09:34:57;100701.50;;;10.92;79.00
69842;BME280;57138;51.326;-0.068;2023-04-19T09:37:24;100701.97;;;10.96;79.36
69842;BME280;57138;51.326;-0.068;2023-04-19T09:39:51;100705.28;;;10.98;78.58
69842;BME280;57138;51.326;-0.068;2023-04-19T09:42:17;100705.59;;;11.03;79.07
69842;BME280;57138;51.326;-0.068;2023-04-19T09:44:56;100705.03;;;11.08;78.86
69842;BME280;57138;51.326;-0.068;2023-04-19T09:47:23;100710.16;;;11.18;77.62
69842;BME280;57138;51.326;-0.068;2023-04-19T09:50:03;100697.06;;;11.23;78.41
69842;BME280;57138;51.326;-0.068;2023-04-19T09:52:31;100707.31;;;11.34;78.27
69842;BME280;57138;51.326;-0.068;2023-04-19T09:54:59;100691.94;;;11.36;77.66
69842;BME280;57138;51.326;-0.068;2023-04-19T09:57:25;100686.22;;;11.39;76.82
69842;BME280;57138;51.326;-0.068;2023-04-19T09:59:50;100683.25;;;11.49;78.12
69842;BME280;57138;51.326;-0.068;2023-04-19T10:02:16;100703.22;;;11.61;76.42
69842;BME280;57138;51.326;-0.068;2023-04-19T10:04:43;100686.97;;;11.63;76.47
69842;BME280;57138;51.326;-0.068;2023-04-19T10:07:09;100685.56;;;11.67;75.82
69842;BME280;57138;51.326;-0.068;2023-04-19T10:09:35;100682.16;;;11.73;75.66
69842;BME280;57138;51.326;-0.068;2023-04-19T10:12:04;100693.44;;;11.83;76.37
69842;BME280;57138;51.326;-0.068;2023-04-19T10:14:34;100677.94;;;11.94;75.73
69842;BME280;57138;51.326;-0.068;2023-04-19T10:17:00;100679.88;;;12.00;75.37
69842;BME280;57138;51.326;-0.068;2023-04-19T10:19:27;100691.25;;;12.02;74.43
69842;BME280;57138;51.326;-0.068;2023-04-19T10:21:53;100678.22;;;11.99;74.29
69842;BME280;57138;51.326;-0.068;2023-04-19T10:24:20;100680.53;;;12.02;73.34
69842;BME280;57138;51.326;-0.068;2023-04-19T10:27:07;100663.81;;;12.00;72.99
69842;BME280;57138;51.326;-0.068;2023-04-19T10:29:55;100666.00;;;11.96;73.54
69842;BME280;57138;51.326;-0.068;2023-04-19T10:32:55;100673.88;;;11.98;74.16
69842;BME280;57138;51.326;-0.068;2023-04-19T10:35:43;100670.72;;;12.09;73.93
69842;BME280;57138;51.326;-0.068;2023-04-19T10:38:13;100663.38;;;12.18;74.08
69842;BME280;57138;51.326;-0.068;2023-04-19T10:41:00;100658.94;;;12.25;72.25
69842;BME280;57138;51.326;-0.068;2023-04-19T10:43:30;100653.28;;;12.35;72.56
69842;BME280;57138;51.326;-0.068;2023-04-19T10:46:00;100659.75;;;12.40;71.90
69842;BME280;57138;51.326;-0.068;2023-04-19T10:53:43;100639.75;;;12.43;71.48
69842;BME280;57138;51.326;-0.068;2023-04-19T10:56:09;100653.88;;;12.52;71.74
69842;BME280;57138;51.326;-0.068;2023-04-19T11:01:39;100642.81;;;12.62;70.47
69842;BME280;57138;51.326;-0.068;2023-04-19T11:06:37;100651.91;;;12.61;69.83
69842;BME280;57138;51.326;-0.068;2023-04-19T11:09:03;100643.59;;;12.55;70.43
69842;BME280;57138;51.326;-0.068;2023-04-19T11:11:34;100639.94;;;12.63;70.56
69842;BME280;57138;51.326;-0.068;2023-04-19T11:14:02;100642.06;;;12.68;69.25
69842;BME280;57138;51.326;-0.068;2023-04-19T11:16:28;100639.63;;;12.73;70.07
69842;BME280;57138;51.326;-0.068;2023-04-19T11:18:55;100635.78;;;12.82;69.45
69842;BME280;57138;51.326;-0.068;2023-04-19T11:21:21;100635.38;;;12.85;69.17
69842;BME280;57138;51.326;-0.068;2023-04-19T11:23:48;100646.44;;;12.97;68.25
69842;BME280;57138;51.326;-0.068;2023-04-19T11:26:14;100646.88;;;13.01;68.02
69842;BME280;57138;51.326;-0.068;2023-04-19T11:28:40;100642.75;;;12.98;68.33
69842;BME280;57138;51.326;-0.068;2023-04-19T11:31:08;100641.38;;;13.09;67.86
69842;BME280;57138;51.326;-0.068;2023-04-19T11:33:35;100636.25;;;13.14;67.71
69842;BME280;57138;51.326;-0.068;2023-04-19T11:36:01;100626.34;;;13.15;66.77
69842;BME280;57138;51.326;-0.068;2023-04-19T11:38:29;100638.94;;;13.14;66.98
69842;BME280;57138;51.326;-0.068;2023-04-19T11:41:02;100640.50;;;13.02;66.13
69842;BME280;57138;51.326;-0.068;2023-04-19T11:43:32;100619.75;;;12.89;66.75
69842;BME280;57138;51.326;-0.068;2023-04-19T11:46:09;100631.16;;;12.98;67.47
69842;BME280;57138;51.326;-0.068;2023-04-19T11:48:35;100635.00;;;12.88;66.67
69842;BME280;57138;51.326;-0.068;2023-04-19T11:51:01;100616.22;;;12.88;67.46
69842;BME280;57138;51.326;-0.068;2023-04-19T11:53:29;100613.03;;;13.00;67.06
69842;BME280;57138;51.326;-0.068;2023-04-19T11:56:02;100611.06;;;13.15;67.69
69842;BME280;57138;51.326;-0.068;2023-04-19T11:58:41;100599.66;;;13.35;66.79
69842;BME280;57138;51.326;-0.068;2023-04-19T12:01:10;100605.25;;;13.40;64.88
69842;BME280;57138;51.326;-0.068;2023-04-19T12:06:35;100597.47;;;13.52;65.94
69842;BME280;57138;51.326;-0.068;2023-04-19T12:09:05;100598.28;;;13.52;64.55
69842;BME280;57138;51.326;-0.068;2023-04-19T12:11:43;100597.69;;;13.57;63.79
69842;BME280;57138;51.326;-0.068;2023-04-19T12:14:14;100597.28;;;13.53;63.91
69842;BME280;57138;51.326;-0.068;2023-04-19T12:16:40;100598.69;;;13.49;64.07
69842;BME280;57138;51.326;-0.068;2023-04-19T12:19:16;100582.84;;;13.54;63.92
69842;BME280;57138;51.326;-0.068;2023-04-19T12:21:43;100589.03;;;13.61;63.55
69842;BME280;57138;51.326;-0.068;2023-04-19T12:24:09;100596.50;;;13.59;62.87
69842;BME280;57138;51.326;-0.068;2023-04-19T12:26:35;100571.50;;;13.65;62.92
69842;BME280;57138;51.326;-0.068;2023-04-19T12:29:02;100580.47;;;13.79;63.10
69842;BME280;57138;51.326;-0.068;2023-04-19T12:31:29;100585.03;;;13.92;63.32
69842;BME280;57138;51.326;-0.068;2023-04-19T12:33:56;100579.88;;;13.97;61.08
69842;BME280;57138;51.326;-0.068;2023-04-19T12:36:21;100575.50;;;13.83;60.68
69842;BME280;57138;51.326;-0.068;2023-04-19T12:38:47;100578.00;;;13.91;61.28
69842;BME280;57138;51.326;-0.068;2023-04-19T12:41:13;100581.34;;;14.00;60.72
69842;BME280;57138;51.326;-0.068;2023-04-19T12:43:38;100580.34;;;14.08;60.47
69842;BME280;57138;51.326;-0.068;2023-04-19T12:46:03;100573.34;;;14.20;61.02
69842;BME280;57138;51.326;-0.068;2023-04-19T12:48:29;100576.84;;;14.27;59.22
69842;BME280;57138;51.326;-0.068;2023-04-19T12:50:54;100568.16;;;14.32;59.09
69842;BME280;57138;51.326;-0.068;2023-04-19T12:53:20;100562.19;;;14.30;57.88
69842;BME280;57138;51.326;-0.068;2023-04-19T12:55:48;100566.94;;;14.34;59.42
69842;BME280;57138;51.326;-0.068;2023-04-19T12:58:18;100575.63;;;14.36;59.71
69842;BME280;57138;51.326;-0.068;2023-04-19T13:00:45;100557.81;;;14.22;58.11